Time;durP1;ratioP1;P1;durP2;ratioP2;P2;SDS_P1;SDS_P2;PMS_P1;PMS_P2;Temp;Humidity;BMP_temperature;BMP_pressure;BME280_temperature;BME280_humidity;BME280_pressure;Samples;Min_cycle;Max_cycle;Signal;HPM_P1;HPM_P2
2023/04/19 00:01:41;;;;;;;1.13;0.60;;;8.40;99.90;;;;;;4994646;28;20202;-85
2023/04/19 00:04:13;;;;;;;0.87;0.40;;;8.60;99.90;;;;;;4975304;28;20686;-85
2023/04/19 00:06:46;;;;;;;1.07;0.70;;;8.60;99.90;;;;;;4979389;28;20218;-86
2023/04/19 00:09:19;;;;;;;1.57;0.40;;;8.60;99.90;;;;;;4993942;28;20206;-86
2023/04/19 00:11:50;;;;;;;1.03;0.50;;;8.80;99.90;;;;;;4994674;28;20214;-85
2023/04/19 00:14:22;;;;;;;2.50;0.53;;;8.80;99.90;;;;;;4992802;28;20211;-87
2023/04/19 00:16:54;;;;;;;0.60;0.40;;;8.90;99.90;;;;;;5008607;28;20217;-86
2023/04/19 00:19:25;;;;;;;0.30;0.30;;;8.80;99.90;;;;;;5003947;28;20237;-87
2023/04/19 00:21:56;;;;;;;0.73;0.30;;;9.00;99.90;;;;;;4994126;28;20203;-85
2023/04/19 00:24:29;;;;;;;0.67;0.50;;;8.90;99.90;;;;;;4998356;28;20249;-85
2023/04/19 00:27:01;;;;;;;0.90;0.50;;;9.00;99.90;;;;;;5014327;28;20209;-87
2023/04/19 00:29:32;;;;;;;1.13;0.53;;;8.90;99.90;;;;;;5013047;28;20218;-87
2023/04/19 00:32:04;;;;;;;1.47;0.50;;;8.80;99.90;;;;;;5014054;28;20206;-87
2023/04/19 00:34:35;;;;;;;0.50;0.33;;;9.20;99.90;;;;;;5000261;28;20213;-86
2023/04/19 00:37:06;;;;;;;0.40;0.40;;;9.20;99.90;;;;;;4994511;28;20206;-87
2023/04/19 00:39:39;;;;;;;0.70;0.40;;;9.20;99.90;;;;;;4994773;28;20225;-88
2023/04/19 00:42:10;;;;;;;1.87;0.53;;;9.60;99.90;;;;;;4998069;28;20285;-85
2023/04/19 00:44:41;;;;;;;1.90;0.50;;;9.40;99.90;;;;;;5014018;28;20276;-86
2023/04/19 00:47:13;;;;;;;1.23;0.47;;;9.40;99.90;;;;;;5014213;28;20206;-85
2023/04/19 00:49:44;;;;;;;0.90;0.50;;;9.50;99.90;;;;;;5024544;28;20206;-85
2023/04/19 00:52:15;;;;;;;1.47;0.50;;;9.20;99.90;;;;;;4995835;28;20270;-85
2023/04/19 00:54:48;;;;;;;0.60;0.50;;;9.40;99.90;;;;;;4983990;28;20265;-83
2023/04/19 00:57:20;;;;;;;0.83;0.70;;;8.80;99.90;;;;;;4991478;28;20206;-86
2023/04/19 00:59:51;;;;;;;2.10;0.43;;;8.70;99.90;;;;;;4996801;28;20541;-88
2023/04/19 01:02:22;;;;;;;0.50;0.47;;;8.70;99.90;;;;;;4990371;28;20214;-85
2023/04/19 01:04:54;;;;;;;1.03;0.50;;;8.60;99.90;;;;;;4984461;28;20258;-87
2023/04/19 01:07:25;;;;;;;2.00;0.60;;;8.40;99.90;;;;;;4998423;28;20206;-87
2023/04/19 01:09:58;;;;;;;2.87;0.60;;;8.20;99.90;;;;;;5007375;28;20248;-87
2023/04/19 01:12:30;;;;;;;0.93;0.50;;;7.90;99.90;;;;;;4993248;28;20214;-85
2023/04/19 01:15:01;;;;;;;1.07;0.40;;;8.20;99.90;;;;;;4993627;28;20214;-87
2023/04/19 01:17:33;;;;;;;1.13;0.53;;;8.70;99.90;;;;;;4995663;28;20679;-86
2023/04/19 01:20:06;;;;;;;1.13;0.77;;;8.50;99.90;;;;;;4976460;28;20235;-86
2023/04/19 01:22:39;;;;;;;0.87;0.60;;;8.20;99.90;;;;;;4985839;28;20598;-87
2023/04/19 01:25:12;;;;;;;2.57;0.40;;;7.30;99.90;;;;;;4993920;28;20214;-88
2023/04/19 01:27:43;;;;;;;0.60;0.50;;;6.70;99.90;;;;;;4988405;28;20210;-89
2023/04/19 01:30:15;;;;;;;1.10;0.53;;;6.50;99.90;;;;;;5000116;28;20217;-89
2023/04/19 01:32:46;;;;;;;1.27;0.70;;;6.10;99.90;;;;;;4994124;28;20214;-88
2023/04/19 01:35:17;;;;;;;0.47;0.47;;;6.10;99.90;;;;;;4982190;28;20210;-89
2023/04/19 01:37:52;;;;;;;1.37;0.47;;;6.10;99.90;;;;;;4975518;28;20203;-89
2023/04/19 01:40:24;;;;;;;1.23;0.60;;;6.30;99.90;;;;;;4983271;28;20229;-88
2023/04/19 01:42:56;;;;;;;0.97;0.73;;;6.30;99.90;;;;;;4994232;28;20276;-88
2023/04/19 01:45:27;;;;;;;2.70;1.33;;;6.50;99.90;;;;;;4997312;28;20620;-89
2023/04/19 01:48:00;;;;;;;1.73;0.70;;;6.50;99.90;;;;;;4994241;28;20297;-90
2023/04/19 01:50:31;;;;;;;2.10;1.10;;;6.10;99.90;;;;;;4994900;28;20275;-90
2023/04/19 01:53:04;;;;;;;0.83;0.63;;;6.10;99.90;;;;;;4993760;28;20207;-92
2023/04/19 01:55:36;;;;;;;1.10;0.50;;;6.10;99.90;;;;;;4984481;28;20295;-91
2023/04/19 01:58:08;;;;;;;0.90;0.70;;;6.10;99.90;;;;;;4995432;28;20578;-91
2023/04/19 02:00:40;;;;;;;0.97;0.60;;;6.10;99.90;;;;;;5009356;28;20253;-89
2023/04/19 02:03:12;;;;;;;1.70;0.73;;;6.10;99.90;;;;;;5012349;28;20202;-90
2023/04/19 02:05:44;;;;;;;1.53;0.60;;;6.20;99.90;;;;;;4993861;28;20214;-89
2023/04/19 02:08:17;;;;;;;1.30;0.40;;;6.20;99.90;;;;;;4996829;28;20210;-88
2023/04/19 02:10:49;;;;;;;1.40;0.67;;;6.10;99.90;;;;;;4982726;28;20226;-89
2023/04/19 02:13:20;;;;;;;1.87;0.60;;;6.10;99.90;;;;;;4978042;28;20242;-89
2023/04/19 02:15:52;;;;;;;2.33;0.70;;;6.10;99.90;;;;;;4990267;28;20562;-89
2023/04/19 02:18:25;;;;;;;2.40;0.90;;;6.30;99.90;;;;;;5002610;28;20238;-89
2023/04/19 02:20:57;;;;;;;1.20;0.67;;;6.30;99.90;;;;;;4997043;28;20206;-89
2023/04/19 02:23:31;;;;;;;0.83;0.83;;;6.30;99.90;;;;;;4997401;28;20664;-87
2023/04/19 02:26:03;;;;;;;1.20;0.93;;;6.30;99.90;;;;;;4997655;28;20620;-89
2023/04/19 02:28:35;;;;;;;2.30;1.00;;;6.20;99.90;;;;;;4997143;28;20241;-90
2023/04/19 02:31:07;;;;;;;1.33;1.10;;;6.20;99.90;;;;;;4997911;28;20208;-90
2023/04/19 02:33:39;;;;;;;1.10;0.73;;;6.20;99.90;;;;;;4978607;28;20214;-90
2023/04/19 02:36:11;;;;;;;1.40;0.87;;;6.20;99.90;;;;;;4997166;28;20300;-90
2023/04/19 02:38:47;;;;;;;2.10;1.17;;;6.10;99.90;;;;;;5001080;28;20202;-90
2023/04/19 02:41:18;;;;;;;2.20;1.00;;;6.10;99.90;;;;;;4981132;28;20222;-90
2023/04/19 02:43:50;;;;;;;1.17;0.90;;;6.10;99.90;;;;;;4991370;28;20214;-90
2023/04/19 02:46:21;;;;;;;1.67;1.10;;;6.10;99.90;;;;;;4997300;28;20436;-89
2023/04/19 02:48:53;;;;;;;3.90;1.37;;;6.10;99.90;;;;;;4995450;28;20231;-90
2023/04/19 02:51:25;;;;;;;2.50;1.00;;;6.10;99.90;;;;;;4997695;28;20202;-89
2023/04/19 02:53:59;;;;;;;1.00;0.90;;;6.10;99.90;;;;;;4993545;28;20210;-89
2023/04/19 02:56:30;;;;;;;1.80;0.80;;;6.10;99.90;;;;;;4993172;28;20203;-89
2023/04/19 02:59:02;;;;;;;1.20;1.10;;;6.00;99.90;;;;;;5006834;28;20288;-89
2023/04/19 03:01:35;;;;;;;1.00;0.90;;;6.00;99.90;;;;;;5004347;28;20261;-89
2023/04/19 03:04:07;;;;;;;2.00;1.27;;;6.00;99.90;;;;;;4999177;28;20240;-89
2023/04/19 03:06:40;;;;;;;2.30;1.40;;;5.90;99.90;;;;;;4989765;28;20211;-88
2023/04/19 03:09:14;;;;;;;1.57;1.10;;;5.90;99.90;;;;;;4981497;28;20245;-89
2023/04/19 03:11:46;;;;;;;1.33;0.90;;;5.80;99.90;;;;;;4994339;28;20202;-91
2023/04/19 03:14:18;;;;;;;1.57;1.13;;;5.70;99.90;;;;;;4994781;28;20210;-88
2023/04/19 03:16:49;;;;;;;1.40;1.27;;;5.70;99.90;;;;;;4991748;28;20214;-90
2023/04/19 03:19:21;;;;;;;2.80;1.50;;;5.70;99.90;;;;;;4995010;28;20675;-89
2023/04/19 03:21:52;;;;;;;2.13;1.10;;;5.60;99.90;;;;;;5000948;28;20207;-90
2023/04/19 03:24:31;;;;;;;1.20;1.10;;;5.60;99.90;;;;;;4977370;28;20207;-89
2023/04/19 03:27:07;;;;;;;1.20;1.10;;;5.50;99.90;;;;;;4994062;28;20209;-89
2023/04/19 03:29:38;;;;;;;2.13;0.97;;;5.50;99.90;;;;;;5002076;28;20586;-89
2023/04/19 03:32:10;;;;;;;2.17;1.07;;;5.50;99.90;;;;;;4990398;28;20246;-90
2023/04/19 03:34:42;;;;;;;2.70;1.10;;;5.50;99.90;;;;;;4987499;28;20726;-89
2023/04/19 03:37:14;;;;;;;1.77;1.10;;;5.40;99.90;;;;;;4996413;28;20237;-89
2023/04/19 03:39:49;;;;;;;1.77;1.00;;;5.40;99.90;;;;;;4992775;28;20226;-89
2023/04/19 03:42:21;;;;;;;2.50;1.20;;;5.40;99.90;;;;;;4981063;28;20207;-90
2023/04/19 03:44:53;;;;;;;1.80;1.20;;;5.40;99.90;;;;;;4992022;28;20216;-90
2023/04/19 03:47:25;;;;;;;1.80;1.20;;;5.50;99.90;;;;;;4989701;28;20552;-92
2023/04/19 03:49:57;;;;;;;1.60;1.03;;;5.40;99.90;;;;;;4995839;28;20221;-90
2023/04/19 03:52:29;;;;;;;1.33;1.10;;;5.40;99.90;;;;;;4995365;28;20210;-90
2023/04/19 03:55:03;;;;;;;2.57;1.10;;;5.40;99.90;;;;;;4996170;28;20659;-90
2023/04/19 03:57:35;;;;;;;2.67;1.77;;;5.40;99.90;;;;;;4995555;28;20477;-91
2023/04/19 04:00:08;;;;;;;2.60;1.43;;;5.30;99.90;;;;;;4993744;28;20687;-89
2023/04/19 04:02:39;;;;;;;2.00;1.20;;;5.30;99.90;;;;;;4994252;28;20618;-90
2023/04/19 04:05:12;;;;;;;1.90;1.20;;;5.30;99.90;;;;;;4997636;28;20210;-89
2023/04/19 04:07:44;;;;;;;1.27;1.17;;;5.30;99.90;;;;;;4982890;28;20226;-90
2023/04/19 04:10:18;;;;;;;1.33;0.97;;;5.30;99.90;;;;;;5016109;28;20191;-89
2023/04/19 04:12:50;;;;;;;1.20;1.10;;;5.30;99.90;;;;;;5006533;28;20206;-90
2023/04/19 04:15:21;;;;;;;2.50;1.10;;;5.20;99.90;;;;;;4992831;28;20261;-89
2023/04/19 04:17:53;;;;;;;1.43;0.80;;;5.20;99.90;;;;;;4975046;28;20207;-89
2023/04/19 04:20:25;;;;;;;2.30;1.00;;;5.20;99.90;;;;;;4990445;28;20230;-88
2023/04/19 04:22:57;;;;;;;1.30;1.00;;;5.20;99.90;;;;;;4982351;28;20226;-89
2023/04/19 04:25:31;;;;;;;1.53;1.20;;;5.20;99.90;;;;;;4996358;28;20214;-90
2023/04/19 04:28:03;;;;;;;1.10;1.00;;;5.30;99.90;;;;;;4994051;28;20213;-90
2023/04/19 04:30:35;;;;;;;2.47;1.13;;;5.20;99.90;;;;;;4995272;28;20214;-90
2023/04/19 04:33:07;;;;;;;2.80;1.10;;;5.20;99.90;;;;;;4995027;28;20214;-89
2023/04/19 04:35:40;;;;;;;1.20;1.10;;;5.20;99.90;;;;;;4989044;28;20238;-90
2023/04/19 04:38:13;;;;;;;1.67;1.10;;;5.20;99.90;;;;;;4974090;28;20206;-91
2023/04/19 04:40:58;;;;;;;1.00;0.90;;;5.20;99.90;;;;;;4988552;28;20234;-90
2023/04/19 04:43:31;;;;;;;1.60;1.00;;;5.10;99.90;;;;;;4993368;28;20206;-88
2023/04/19 04:46:03;;;;;;;1.40;1.10;;;5.10;99.90;;;;;;4975323;28;20214;-89
2023/04/19 04:48:34;;;;;;;3.57;1.40;;;5.10;99.90;;;;;;4985523;28;20210;-89
2023/04/19 04:51:06;;;;;;;0.97;0.90;;;5.00;99.90;;;;;;4986705;28;20622;-89
2023/04/19 04:53:38;;;;;;;1.13;1.03;;;5.10;99.90;;;;;;4996816;28;20237;-89
2023/04/19 04:56:12;;;;;;;2.50;1.30;;;5.10;99.90;;;;;;4991460;28;20202;-90
2023/04/19 04:58:43;;;;;;;1.30;0.90;;;5.10;99.90;;;;;;4992340;28;20289;-90
2023/04/19 05:01:18;;;;;;;1.10;1.00;;;5.00;99.90;;;;;;4991797;28;20245;-89
2023/04/19 05:03:50;;;;;;;0.80;0.77;;;5.00;99.90;;;;;;4980793;28;20276;-90
2023/04/19 05:06:22;;;;;;;1.10;1.00;;;5.00;99.90;;;;;;4989001;28;20206;-90
2023/04/19 05:08:54;;;;;;;1.87;1.10;;;4.90;99.90;;;;;;4991667;28;20225;-89
2023/04/19 05:11:29;;;;;;;1.07;0.97;;;4.90;99.90;;;;;;4982576;28;20211;-90
2023/04/19 05:14:00;;;;;;;1.40;1.10;;;4.80;99.90;;;;;;4994760;28;20549;-90
2023/04/19 05:16:33;;;;;;;1.37;0.93;;;4.80;99.90;;;;;;4991013;28;20626;-90
2023/04/19 05:19:04;;;;;;;0.70;0.70;;;4.80;99.90;;;;;;4993521;28;20226;-90
2023/04/19 05:21:36;;;;;;;1.27;1.10;;;4.70;99.90;;;;;;4991112;28;20292;-89
2023/04/19 05:24:08;;;;;;;1.07;1.03;;;4.70;99.90;;;;;;4993862;28;20202;-89
2023/04/19 05:26:43;;;;;;;1.63;1.20;;;4.60;99.90;;;;;;4994190;28;20212;-88
2023/04/19 05:29:15;;;;;;;1.63;1.00;;;4.60;99.90;;;;;;4995619;28;20214;-90
2023/04/19 05:31:47;;;;;;;2.17;1.10;;;4.50;99.90;;;;;;4982718;28;20287;-88
2023/04/19 05:34:19;;;;;;;1.40;1.00;;;4.50;99.90;;;;;;4989581;28;20210;-89
2023/04/19 05:36:52;;;;;;;1.07;0.97;;;4.50;99.90;;;;;;5007779;28;20229;-89
2023/04/19 05:39:24;;;;;;;1.13;1.03;;;4.40;99.90;;;;;;4991373;28;20198;-88
2023/04/19 05:41:59;;;;;;;1.40;1.00;;;4.30;99.90;;;;;;4993144;28;20673;-87
2023/04/19 05:44:30;;;;;;;1.37;0.80;;;4.30;99.90;;;;;;4992982;28;20216;-88
2023/04/19 05:47:02;;;;;;;2.23;1.20;;;4.30;99.90;;;;;;4997561;28;20678;-90
2023/04/19 05:49:34;;;;;;;1.60;0.87;;;4.20;99.90;;;;;;4994928;28;20206;-89
2023/04/19 05:52:05;;;;;;;1.27;1.00;;;4.20;99.90;;;;;;4993461;28;20214;-89
2023/04/19 05:54:36;;;;;;;1.13;1.00;;;4.20;99.90;;;;;;4996875;28;20206;-89
2023/04/19 05:57:10;;;;;;;1.97;1.27;;;4.10;99.90;;;;;;4987776;28;20273;-90
2023/04/19 05:59:42;;;;;;;0.97;0.87;;;4.10;99.90;;;;;;5008062;28;20205;-90
2023/04/19 06:02:14;;;;;;;2.23;1.10;;;4.10;99.90;;;;;;4982325;28;20282;-89
2023/04/19 06:04:46;;;;;;;1.40;1.20;;;4.10;99.90;;;;;;4980540;28;20207;-89
2023/04/19 06:07:19;;;;;;;2.37;1.00;;;4.10;99.90;;;;;;4986101;28;20273;-89
2023/04/19 06:10:03;;;;;;;1.20;1.10;;;4.00;99.90;;;;;;4975032;28;20266;-88
2023/04/19 06:12:37;;;;;;;2.17;1.20;;;4.00;99.90;;;;;;4974895;28;20207;-90
2023/04/19 06:15:10;;;;;;;2.10;1.50;;;3.90;99.90;;;;;;4980915;28;20215;-89
2023/04/19 06:17:42;;;;;;;1.60;1.23;;;3.90;99.90;;;;;;5001258;28;20206;-90
2023/04/19 06:20:15;;;;;;;1.50;1.40;;;3.80;99.90;;;;;;5003727;28;20226;-90
2023/04/19 06:22:47;;;;;;;1.30;1.20;;;3.80;99.90;;;;;;4990399;28;20292;-88
2023/04/19 06:25:19;;;;;;;2.83;1.67;;;3.80;99.90;;;;;;4991214;28;20265;-89
2023/04/19 06:27:54;;;;;;;1.60;1.20;;;3.80;99.90;;;;;;4989792;28;20222;-89
2023/04/19 06:30:26;;;;;;;1.30;1.20;;;3.70;99.90;;;;;;4990251;28;20205;-89
2023/04/19 06:32:58;;;;;;;1.20;1.10;;;3.80;99.90;;;;;;4992046;28;20253;-89
2023/04/19 06:35:29;;;;;;;2.40;1.20;;;3.70;99.90;;;;;;4993931;28;20253;-90
2023/04/19 06:38:01;;;;;;;1.77;1.00;;;3.70;99.90;;;;;;4979270;28;20226;-89
2023/04/19 06:40:33;;;;;;;2.10;1.10;;;3.60;99.90;;;;;;4989811;28;20222;-88
2023/04/19 06:43:07;;;;;;;1.70;1.17;;;3.70;99.90;;;;;;4991713;28;20209;-88
2023/04/19 06:45:39;;;;;;;1.80;1.63;;;3.60;99.90;;;;;;4995221;28;20234;-89
2023/04/19 06:48:11;;;;;;;1.40;1.30;;;3.50;99.90;;;;;;5006152;28;20206;-90
2023/04/19 06:50:43;;;;;;;1.57;1.47;;;3.50;99.90;;;;;;4997282;28;20213;-89
2023/04/19 06:53:14;;;;;;;2.43;1.30;;;3.50;99.90;;;;;;4997949;28;20229;-88
2023/04/19 06:55:47;;;;;;;1.50;1.40;;;3.50;99.90;;;;;;4997874;28;20211;-89
2023/04/19 06:58:20;;;;;;;1.10;0.93;;;3.50;99.90;;;;;;4993777;28;20279;-89
2023/04/19 07:00:52;;;;;;;1.50;0.93;;;3.50;99.90;;;;;;4987050;28;20232;-89
2023/04/19 07:03:24;;;;;;;1.93;1.20;;;3.50;99.90;;;;;;5017068;28;20209;-87
2023/04/19 07:05:57;;;;;;;1.97;1.27;;;3.50;99.90;;;;;;5015342;28;20283;-89
2023/04/19 07:08:30;;;;;;;2.40;1.20;;;3.50;99.90;;;;;;4997086;28;20579;-89
2023/04/19 07:11:18;;;;;;;1.73;0.90;;;3.40;99.90;;;;;;4990018;28;20664;-89
2023/04/19 07:13:54;;;;;;;1.20;1.10;;;3.40;99.90;;;;;;4998984;28;20209;-89
2023/04/19 07:16:26;;;;;;;0.80;0.80;;;3.40;99.90;;;;;;4996557;28;20261;-90
2023/04/19 07:18:58;;;;;;;1.53;0.90;;;3.40;99.90;;;;;;4979731;28;20211;-89
2023/04/19 07:21:32;;;;;;;1.90;1.13;;;3.30;99.90;;;;;;5001528;28;20234;-89
2023/04/19 07:24:03;;;;;;;1.00;1.00;;;3.30;99.90;;;;;;4978304;28;20656;-89
2023/04/19 07:26:35;;;;;;;1.20;0.83;;;3.30;99.90;;;;;;5017637;28;20221;-89
2023/04/19 07:29:09;;;;;;;4.33;1.20;;;3.40;99.90;;;;;;4993403;28;20202;-90
2023/04/19 07:31:44;;;;;;;1.80;1.20;;;3.30;99.90;;;;;;4997413;28;20198;-89
2023/04/19 07:34:15;;;;;;;1.17;1.00;;;3.20;99.90;;;;;;4999526;28;20295;-88
2023/04/19 07:36:48;;;;;;;0.93;0.90;;;3.20;99.90;;;;;;5005504;28;20240;-89
2023/04/19 07:39:19;;;;;;;1.37;1.10;;;3.20;99.90;;;;;;5015931;28;20244;-89
2023/04/19 07:41:51;;;;;;;1.57;1.27;;;3.20;99.90;;;;;;4994866;28;20262;-91
2023/04/19 07:44:25;;;;;;;1.33;0.90;;;3.10;99.90;;;;;;4991062;28;20280;-89
2023/04/19 07:46:57;;;;;;;2.27;1.10;;;3.10;99.90;;;;;;4992582;28;20220;-89
2023/04/19 07:49:32;;;;;;;1.27;0.80;;;3.10;99.90;;;;;;4996317;28;20261;-88
2023/04/19 07:52:04;;;;;;;1.30;1.20;;;3.10;99.90;;;;;;4993257;28;20268;-89
2023/04/19 07:54:38;;;;;;;0.97;0.97;;;3.20;99.90;;;;;;4994747;28;20677;-89
2023/04/19 07:57:09;;;;;;;1.77;0.97;;;3.20;99.90;;;;;;4999619;28;20256;-89
2023/04/19 07:59:44;;;;;;;1.20;1.10;;;3.20;99.90;;;;;;4996621;28;20245;-89
2023/04/19 08:02:17;;;;;;;1.10;1.00;;;3.10;99.90;;;;;;4994627;28;20229;-89
2023/04/19 08:04:50;;;;;;;1.40;1.20;;;3.10;99.90;;;;;;4997144;28;20229;-89
2023/04/19 08:07:22;;;;;;;1.07;0.93;;;3.10;99.90;;;;;;4996328;28;20269;-89
2023/04/19 08:09:54;;;;;;;2.33;1.20;;;3.20;99.90;;;;;;5001842;28;20234;-89
2023/04/19 08:12:26;;;;;;;1.40;1.10;;;3.20;99.90;;;;;;5001376;28;20234;-90
2023/04/19 08:15:11;;;;;;;1.20;1.10;;;3.30;99.90;;;;;;4999087;28;20635;-88
2023/04/19 08:18:03;;;;;;;2.47;1.23;;;3.30;99.90;;;;;;4987966;28;20278;-89
2023/04/19 08:20:35;;;;;;;1.17;1.07;;;3.50;99.90;;;;;;5000790;28;20211;-88
2023/04/19 08:23:07;;;;;;;0.83;0.83;;;3.60;99.90;;;;;;5017397;28;20235;-88
2023/04/19 08:25:54;;;;;;;1.73;1.10;;;3.60;99.90;;;;;;5012500;28;20175;-89
2023/04/19 08:28:26;;;;;;;3.47;1.00;;;3.60;99.90;;;;;;4978333;28;20211;-90
2023/04/19 08:31:00;;;;;;;1.87;1.13;;;3.70;99.90;;;;;;4976965;28;20227;-89
2023/04/19 08:33:32;;;;;;;2.57;0.93;;;3.70;99.90;;;;;;4978038;28;20206;-89
2023/04/19 08:36:05;;;;;;;2.90;1.20;;;3.80;99.90;;;;;;4997693;28;20241;-90
2023/04/19 08:38:37;;;;;;;1.50;1.03;;;3.80;99.90;;;;;;4996513;28;20218;-89
2023/04/19 08:41:09;;;;;;;1.57;0.83;;;3.80;99.90;;;;;;4977321;28;20203;-88
2023/04/19 08:43:43;;;;;;;1.20;1.10;;;3.90;99.90;;;;;;4981993;28;20249;-89
2023/04/19 08:46:18;;;;;;;1.47;1.10;;;3.90;99.90;;;;;;4993258;28;20223;-89
2023/04/19 08:48:51;;;;;;;1.20;1.10;;;4.00;99.90;;;;;;4995745;28;20206;-89
2023/04/19 08:51:23;;;;;;;1.33;1.10;;;4.00;99.90;;;;;;5004506;28;20221;-88
2023/04/19 08:53:56;;;;;;;2.93;1.10;;;4.00;99.90;;;;;;5015396;28;20213;-90
2023/04/19 08:56:29;;;;;;;2.23;1.50;;;4.10;99.90;;;;;;4995543;28;20647;-89
2023/04/19 08:59:05;;;;;;;1.00;0.90;;;4.00;99.90;;;;;;4996116;28;20745;-89
2023/04/19 09:01:51;;;;;;;1.53;1.30;;;4.10;99.90;;;;;;4987519;28;20206;-90
2023/04/19 09:04:22;;;;;;;1.10;1.00;;;4.00;99.90;;;;;;4997141;28;20210;-89
2023/04/19 09:07:07;;;;;;;1.80;1.40;;;4.10;99.90;;;;;;4974779;28;20227;-89
2023/04/19 09:09:41;;;;;;;1.70;1.10;;;4.10;99.90;;;;;;4980275;28;20210;-90
2023/04/19 09:12:31;;;;;;;1.30;1.20;;;4.10;99.90;;;;;;5011633;28;20213;-89
2023/04/19 09:15:05;;;;;;;1.43;1.30;;;4.10;99.90;;;;;;4991487;28;20302;-89
2023/04/19 09:17:39;;;;;;;1.30;1.00;;;4.10;99.90;;;;;;5004730;28;20201;-89
2023/04/19 09:20:12;;;;;;;1.33;1.23;;;4.20;99.90;;;;;;5015180;28;20223;-89
2023/04/19 09:22:43;;;;;;;1.40;1.30;;;4.20;99.90;;;;;;4991846;28;20235;-89
2023/04/19 09:25:27;;;;;;;3.40;1.30;;;4.20;99.90;;;;;;5009437;28;20829;-89
2023/04/19 09:28:19;;;;;;;0.90;0.90;;;4.20;99.90;;;;;;5006674;28;20210;-90
2023/04/19 09:30:51;;;;;;;1.17;1.10;;;4.20;99.90;;;;;;4990069;28;20431;-90
2023/04/19 09:33:38;;;;;;;1.40;1.20;;;4.20;99.90;;;;;;5008797;28;20324;-91
2023/04/19 09:36:11;;;;;;;1.43;1.33;;;4.10;99.90;;;;;;5004405;28;20212;-91
2023/04/19 09:38:52;;;;;;;2.57;1.50;;;4.10;99.90;;;;;;5015465;28;20213;-90
2023/04/19 09:41:24;;;;;;;1.23;1.13;;;4.10;99.90;;;;;;5011763;28;20216;-89
2023/04/19 09:43:56;;;;;;;1.40;1.07;;;4.00;99.90;;;;;;4982035;28;20229;-89
2023/04/19 09:46:50;;;;;;;2.40;1.20;;;4.00;99.90;;;;;;4976406;28;20246;-90
2023/04/19 09:49:26;;;;;;;2.37;1.10;;;4.10;99.90;;;;;;4999625;28;20578;-91
2023/04/19 09:52:18;;;;;;;1.43;1.10;;;4.00;99.90;;;;;;4975775;28;20565;-90
2023/04/19 09:54:52;;;;;;;2.30;1.20;;;4.00;99.90;;;;;;4978897;28;20210;-90
2023/04/19 09:57:24;;;;;;;3.00;1.20;;;4.00;99.90;;;;;;4994684;28;20209;-90
2023/04/19 09:59:55;;;;;;;3.50;1.23;;;4.00;99.90;;;;;;4984718;28;20231;-90
2023/04/19 10:02:32;;;;;;;1.20;1.10;;;4.10;99.90;;;;;;4976233;28;20211;-87
2023/04/19 10:05:08;;;;;;;2.57;1.47;;;4.20;99.90;;;;;;4994643;28;20214;-88
2023/04/19 10:07:51;;;;;;;1.40;1.30;;;4.30;99.90;;;;;;4992290;28;20655;-90
2023/04/19 10:10:30;;;;;;;2.30;1.30;;;4.40;99.90;;;;;;4993269;28;20241;-89
2023/04/19 10:13:13;;;;;;;1.43;1.20;;;4.40;99.90;;;;;;4994195;28;20223;-89
2023/04/19 10:15:52;;;;;;;1.70;1.27;;;4.40;99.90;;;;;;5008253;28;20260;-88
2023/04/19 10:18:35;;;;;;;1.20;1.10;;;4.40;99.90;;;;;;4984206;28;20213;-89
2023/04/19 10:21:11;;;;;;;1.50;1.30;;;4.40;99.90;;;;;;4995625;28;20223;-90
2023/04/19 10:23:43;;;;;;;1.87;1.53;;;4.40;99.90;;;;;;5001767;28;20225;-91
2023/04/19 10:26:16;;;;;;;2.07;1.10;;;4.50;99.90;;;;;;5019745;28;20716;-89
2023/04/19 10:28:50;;;;;;;1.33;1.10;;;4.50;99.90;;;;;;5032672;28;20225;-89
2023/04/19 10:31:23;;;;;;;0.90;0.90;;;4.50;99.90;;;;;;5021373;28;20207;-90
2023/04/19 10:33:56;;;;;;;2.17;0.97;;;4.50;99.90;;;;;;5019711;28;20237;-88
2023/04/19 10:36:30;;;;;;;1.43;1.20;;;4.50;99.90;;;;;;5018470;28;20205;-89
2023/04/19 10:39:02;;;;;;;1.50;1.40;;;4.50;99.90;;;;;;5014407;28;20235;-90
2023/04/19 10:41:59;;;;;;;1.20;1.10;;;4.50;99.90;;;;;;5018362;28;20201;-89
2023/04/19 10:44:30;;;;;;;1.60;1.30;;;4.50;99.90;;;;;;5017629;28;20264;-90
2023/04/19 10:47:02;;;;;;;1.73;0.90;;;4.40;99.90;;;;;;5017183;28;20240;-89
2023/04/19 10:49:46;;;;;;;1.33;1.10;;;4.40;99.90;;;;;;5016381;28;20206;-89
2023/04/19 10:52:31;;;;;;;2.60;1.20;;;4.40;99.90;;;;;;5000019;28;20563;-89
2023/04/19 10:55:07;;;;;;;3.00;1.27;;;4.50;99.90;;;;;;4999577;28;20564;-89
2023/04/19 10:58:06;;;;;;;1.10;1.00;;;4.50;99.90;;;;;;5015611;28;20603;-90
2023/04/19 11:00:37;;;;;;;1.90;1.07;;;4.50;99.90;;;;;;5017088;28;20218;-88
2023/04/19 11:03:41;;;;;;;1.17;1.07;;;4.50;99.90;;;;;;5008726;28;20293;-89
2023/04/19 11:06:25;;;;;;;1.27;1.03;;;4.50;99.90;;;;;;4996629;28;20253;-90
2023/04/19 11:08:59;;;;;;;1.83;0.90;;;4.50;99.90;;;;;;4995755;28;20964;-90
2023/04/19 11:11:34;;;;;;;1.40;1.10;;;4.50;99.90;;;;;;4996427;28;20652;-89
2023/04/19 11:14:09;;;;;;;0.90;0.90;;;4.40;99.90;;;;;;4997390;28;20210;-89
2023/04/19 11:16:40;;;;;;;1.43;1.00;;;4.40;99.90;;;;;;4997857;28;20236;-90
2023/04/19 11:19:17;;;;;;;1.17;1.07;;;4.40;99.90;;;;;;4997398;28;20296;-90
2023/04/19 11:21:50;;;;;;;1.53;1.00;;;4.40;99.90;;;;;;4997807;28;20203;-89
2023/04/19 11:24:24;;;;;;;2.07;1.10;;;4.40;99.90;;;;;;4995853;28;20237;-90
2023/04/19 11:26:58;;;;;;;1.70;1.10;;;4.40;99.90;;;;;;4977842;28;20593;-90
2023/04/19 11:29:30;;;;;;;1.20;1.10;;;4.40;99.90;;;;;;4976679;28;20211;-91
2023/04/19 11:32:02;;;;;;;1.70;1.40;;;4.40;99.90;;;;;;4979617;28;20277;-91
2023/04/19 11:34:38;;;;;;;2.07;1.30;;;4.50;99.90;;;;;;4977457;28;20233;-90
2023/04/19 11:37:11;;;;;;;1.30;1.20;;;4.50;99.90;;;;;;4979652;28;20620;-90
2023/04/19 11:39:51;;;;;;;1.70;1.23;;;4.40;99.90;;;;;;4988830;28;20218;-89
2023/04/19 11:42:23;;;;;;;2.10;1.00;;;4.40;99.90;;;;;;4982625;28;20210;-90
2023/04/19 11:44:57;;;;;;;2.60;1.03;;;4.30;99.90;;;;;;4996618;28;20234;-89
2023/04/19 11:47:28;;;;;;;2.10;1.00;;;4.30;99.90;;;;;;4999096;28;20213;-90
2023/04/19 11:50:36;;;;;;;1.30;1.20;;;4.20;99.90;;;;;;4976732;28;20225;-89
2023/04/19 11:53:16;;;;;;;2.07;1.17;;;4.20;99.90;;;;;;4976622;28;20575;-89
2023/04/19 11:55:51;;;;;;;1.10;1.00;;;4.10;99.90;;;;;;4991419;28;20221;-89
2023/04/19 11:58:29;;;;;;;1.30;1.00;;;4.10;99.90;;;;;;4994035;28;20218;-89
2023/04/19 12:01:07;;;;;;;1.53;1.27;;;4.10;99.90;;;;;;4984918;28;20300;-89
2023/04/19 12:03:47;;;;;;;2.67;1.00;;;4.00;99.90;;;;;;4995860;28;20210;-89
2023/04/19 12:06:20;;;;;;;1.83;0.97;;;4.10;99.90;;;;;;4996096;28;20248;-89
2023/04/19 12:08:52;;;;;;;2.10;1.03;;;4.10;99.90;;;;;;4994768;28;20237;-89
2023/04/19 12:11:28;;;;;;;1.10;1.00;;;4.10;99.90;;;;;;4995407;28;20213;-88
2023/04/19 12:14:10;;;;;;;1.13;1.00;;;4.20;99.90;;;;;;4978203;28;20206;-88
2023/04/19 12:16:43;;;;;;;0.90;0.90;;;4.20;99.90;;;;;;4976251;28;20226;-88
2023/04/19 12:19:16;;;;;;;1.80;1.23;;;4.20;99.90;;;;;;4975999;28;20633;-88
2023/04/19 12:21:48;;;;;;;1.80;1.03;;;4.20;99.90;;;;;;4992745;28;20667;-89
2023/04/19 12:24:19;;;;;;;1.10;0.90;;;4.30;99.90;;;;;;4976895;28;20752;-89
2023/04/19 12:26:59;;;;;;;1.03;0.90;;;4.30;99.90;;;;;;4977332;28;20302;-88
2023/04/19 12:29:32;;;;;;;1.43;1.00;;;4.30;99.90;;;;;;4995057;28;20199;-90
2023/04/19 12:32:04;;;;;;;2.40;1.20;;;4.30;99.90;;;;;;4997506;28;20299;-88
2023/04/19 12:34:36;;;;;;;1.47;1.23;;;4.30;99.90;;;;;;4987561;28;20210;-89
2023/04/19 12:37:08;;;;;;;1.33;1.10;;;4.20;99.90;;;;;;4992061;28;20214;-90
2023/04/19 12:39:39;;;;;;;1.20;1.10;;;4.20;99.90;;;;;;4993855;28;20597;-89
2023/04/19 12:42:14;;;;;;;1.43;0.80;;;4.20;99.90;;;;;;4995926;28;20264;-91
2023/04/19 12:44:45;;;;;;;1.20;0.70;;;4.30;99.90;;;;;;4995059;28;20241;-91
2023/04/19 12:47:17;;;;;;;0.73;0.73;;;4.40;99.90;;;;;;4995561;28;20221;-90
2023/04/19 12:49:48;;;;;;;1.87;0.90;;;4.40;99.90;;;;;;5013955;28;20221;-89
2023/04/19 12:52:21;;;;;;;1.20;0.93;;;4.50;99.90;;;;;;5014140;28;20271;-90
2023/04/19 12:54:52;;;;;;;1.00;0.80;;;4.40;99.90;;;;;;4994911;28;20237;-89
2023/04/19 12:57:26;;;;;;;0.93;0.90;;;4.50;99.90;;;;;;4994671;28;20217;-91
2023/04/19 12:59:58;;;;;;;0.97;0.90;;;4.50;99.90;;;;;;4980462;28;20277;-90
2023/04/19 13:02:31;;;;;;;2.33;0.97;;;4.50;99.90;;;;;;4985242;28;20218;-90
2023/04/19 13:05:03;;;;;;;2.20;1.00;;;4.60;99.90;;;;;;4994422;28;20725;-91
2023/04/19 13:07:36;;;;;;;0.93;0.80;;;4.50;99.90;;;;;;4994205;28;20222;-91
2023/04/19 13:10:09;;;;;;;2.13;1.20;;;4.50;99.90;;;;;;4975998;28;20215;-91
2023/04/19 13:12:42;;;;;;;3.13;1.20;;;4.50;99.90;;;;;;4980663;28;20663;-89
2023/04/19 13:15:14;;;;;;;4.33;1.33;;;4.50;99.90;;;;;;4986696;28;20624;-92
2023/04/19 13:17:46;;;;;;;1.23;1.10;;;4.50;99.90;;;;;;4973886;28;20200;-91
2023/04/19 13:20:19;;;;;;;1.03;0.93;;;4.50;99.90;;;;;;4975180;28;20207;-89
2023/04/19 13:22:51;;;;;;;1.37;1.23;;;4.50;99.90;;;;;;4986705;28;20211;-90
2023/04/19 13:25:23;;;;;;;1.87;1.13;;;4.50;99.90;;;;;;4992479;28;20265;-90
2023/04/19 13:27:56;;;;;;;1.83;1.20;;;4.50;99.90;;;;;;4992376;28;20221;-90
2023/04/19 13:30:28;;;;;;;2.40;1.40;;;4.50;99.90;;;;;;4990305;28;20236;-90
2023/04/19 13:33:00;;;;;;;1.40;1.13;;;4.50;99.90;;;;;;4990263;28;20278;-90